Time;durP1;ratioP1;P1;durP2;ratioP2;P2;SDS_P1;SDS_P2;PMS_P1;PMS_P2;Temp;Humidity;BMP_temperature;BMP_pressure;BME280_temperature;BME280_humidity;BME280_pressure;Samples;Min_cycle;Max_cycle;Signal;HPM_P1;HPM_P2
2022/02/14 00:02:29;;;;;;;85.80;37.20;;;;;;;0.82;53.42;99263.04;220107;1283;138988;-59
2022/02/14 00:07:32;;;;;;;79.90;36.20;;;;;;;0.79;53.27;99255.23;219909;1284;139256;-59
2022/02/14 00:12:39;;;;;;;84.00;34.90;;;;;;;0.79;53.31;99247.92;220047;1285;138948;-60
2022/02/14 00:17:42;;;;;;;74.90;33.30;;;;;;;0.79;53.32;99242.85;219414;1287;140404;-59
2022/02/14 00:22:46;;;;;;;80.50;36.10;;;;;;;0.75;53.29;99242.58;219927;1286;139536;-60
2022/02/14 00:27:51;;;;;;;87.00;37.10;;;;;;;0.73;53.52;99245.41;220303;1284;139251;-64
2022/02/14 00:32:54;;;;;;;80.80;35.20;;;;;;;0.68;53.66;99242.71;219674;1286;138923;-63
2022/02/14 00:37:57;;;;;;;74.00;32.90;;;;;;;0.62;53.67;99237.23;219980;1285;140723;-63
2022/02/14 00:43:00;;;;;;;73.10;32.40;;;;;;;0.60;53.67;99233.25;220106;1286;139478;-63
2022/02/14 00:48:03;;;;;;;76.50;32.50;;;;;;;0.64;53.84;99226.55;220130;1285;138960;-62
2022/02/14 00:53:07;;;;;;;71.50;33.50;;;;;;;0.63;53.96;99223.60;220076;1285;139010;-64
2022/02/14 00:58:10;;;;;;;74.40;33.10;;;;;;;0.62;53.88;99215.06;220229;1284;139761;-61
2022/02/14 01:03:13;;;;;;;73.50;31.80;;;;;;;0.59;53.96;99208.11;219641;1286;139676;-61
2022/02/14 01:08:17;;;;;;;71.10;31.80;;;;;;;0.55;53.95;99202.28;218940;1286;138951;-57
2022/02/14 01:13:20;;;;;;;66.80;30.70;;;;;;;0.50;54.01;99195.55;219863;1283;139215;-60
2022/02/14 01:18:23;;;;;;;65.30;28.80;;;;;;;0.48;53.97;99189.48;220096;1285;140847;-59
2022/02/14 01:23:27;;;;;;;62.70;27.80;;;;;;;0.51;54.21;99184.20;220068;1286;139156;-58
2022/02/14 01:28:30;;;;;;;64.00;28.00;;;;;;;0.51;54.09;99179.84;219971;1284;138967;-57
2022/02/14 01:33:34;;;;;;;64.60;26.70;;;;;;;0.54;54.08;99173.31;220072;1285;139545;-58
2022/02/14 01:38:36;;;;;;;55.90;25.10;;;;;;;0.56;53.99;99168.73;220038;1285;139445;-57
2022/02/14 01:43:41;;;;;;;59.80;26.90;;;;;;;0.57;54.05;99167.14;220051;1285;140038;-59
2022/02/14 01:48:44;;;;;;;55.00;24.10;;;;;;;0.55;53.96;99159.67;219954;1285;139814;-62
2022/02/14 01:53:49;;;;;;;53.00;24.00;;;;;;;0.51;53.94;99148.41;219806;1283;139736;-58
2022/02/14 01:58:52;;;;;;;53.00;23.80;;;;;;;0.51;54.00;99145.10;219843;1285;139303;-57
2022/02/14 02:03:55;;;;;;;50.10;23.80;;;;;;;0.51;54.15;99142.14;219815;1286;140058;-62
2022/02/14 02:08:59;;;;;;;52.00;23.50;;;;;;;0.55;54.24;99136.82;220089;1285;140587;-61
2022/02/14 02:14:02;;;;;;;50.20;22.90;;;;;;;0.52;54.45;99129.71;219968;1286;139717;-58
2022/02/14 02:19:06;;;;;;;53.80;22.50;;;;;;;0.50;54.54;99124.88;220090;1285;138926;-60
2022/02/14 02:24:09;;;;;;;41.70;20.10;;;;;;;0.52;54.59;99119.44;219839;1286;139624;-60
2022/02/14 02:29:15;;;;;;;45.50;21.00;;;;;;;0.53;54.59;99115.39;219956;1285;141731;-58
2022/02/14 02:34:18;;;;;;;47.80;21.50;;;;;;;0.50;54.37;99107.06;219874;1286;138984;-59
2022/02/14 02:39:22;;;;;;;45.90;19.90;;;;;;;0.49;54.71;99107.80;219962;1285;138966;-60
2022/02/14 02:44:25;;;;;;;41.70;19.00;;;;;;;0.51;54.70;99108.28;220009;1285;139984;-60
2022/02/14 02:49:29;;;;;;;40.50;18.30;;;;;;;0.50;54.89;99099.56;219980;1286;140272;-60
2022/02/14 02:54:33;;;;;;;38.80;18.40;;;;;;;0.53;54.91;99099.67;219827;1286;139771;-61
2022/02/14 02:59:36;;;;;;;40.80;18.80;;;;;;;0.54;54.83;99094.95;219875;1286;138839;-61
2022/02/14 03:04:39;;;;;;;42.60;18.90;;;;;;;0.50;54.94;99094.87;219033;1285;139392;-59
2022/02/14 03:09:43;;;;;;;38.80;18.20;;;;;;;0.45;54.86;99096.34;220160;1284;139381;-58
2022/02/14 03:14:45;;;;;;;36.00;17.80;;;;;;;0.42;54.95;99093.09;219922;1286;138739;-59
2022/02/14 03:19:48;;;;;;;32.80;16.90;;;;;;;0.41;55.12;99088.56;219900;1285;139022;-60
2022/02/14 03:24:51;;;;;;;31.20;16.00;;;;;;;0.43;55.10;99085.02;220148;1284;139118;-59
2022/02/14 03:29:54;;;;;;;39.30;16.40;;;;;;;0.46;55.18;99086.55;219990;1286;140115;-61
2022/02/14 03:34:58;;;;;;;32.50;16.10;;;;;;;0.48;55.25;99087.55;219976;1286;139956;-61
2022/02/14 03:40:01;;;;;;;32.10;16.10;;;;;;;0.51;55.29;99088.20;220152;1284;139279;-61
2022/02/14 03:45:05;;;;;;;33.50;16.50;;;;;;;0.53;55.30;99088.67;219485;1286;139477;-57
2022/02/14 03:50:08;;;;;;;29.00;15.30;;;;;;;0.56;55.46;99090.01;219959;1285;139077;-65
2022/02/14 03:55:11;;;;;;;116.00;60.50;;;;;;;0.60;55.66;99088.55;219624;1286;139289;-65
2022/02/14 04:00:15;;;;;;;35.60;17.30;;;;;;;0.75;55.98;99079.48;219266;1285;139310;-61
2022/02/14 04:05:19;;;;;;;31.90;16.20;;;;;;;0.81;55.48;99080.39;219924;1286;139240;-60
2022/02/14 04:10:23;;;;;;;29.60;15.40;;;;;;;0.79;55.45;99073.80;220115;1286;140160;-57
2022/02/14 04:15:26;;;;;;;38.40;17.00;;;;;;;0.77;55.67;99078.39;219919;1286;138901;-60
2022/02/14 04:20:29;;;;;;;37.10;17.80;;;;;;;0.72;55.48;99078.33;219713;1286;139755;-61
2022/02/14 04:25:33;;;;;;;38.40;17.10;;;;;;;0.67;55.37;99069.70;219941;1286;139604;-59
2022/02/14 04:30:36;;;;;;;46.40;22.70;;;;;;;0.61;55.60;99068.78;219859;1285;139338;-62
2022/02/14 04:35:39;;;;;;;44.50;21.70;;;;;;;0.66;55.68;99068.67;219930;1285;139176;-63
2022/02/14 04:40:42;;;;;;;38.70;19.30;;;;;;;0.58;55.41;99068.14;219999;1285;139689;-62
2022/02/14 04:45:45;;;;;;;42.30;19.60;;;;;;;0.49;55.57;99065.55;219957;1286;208429;-61
2022/02/14 04:50:48;;;;;;;43.70;19.80;;;;;;;0.45;55.53;99068.25;219873;1285;138975;-61
2022/02/14 04:55:51;;;;;;;41.20;19.20;;;;;;;0.41;55.78;99061.53;219947;1285;140732;-59
2022/02/14 05:00:54;;;;;;;45.80;20.10;;;;;;;0.38;55.74;99056.52;219949;1285;139221;-57
2022/02/14 05:05:57;;;;;;;44.60;21.50;;;;;;;0.35;55.74;99058.15;220044;1284;139564;-59
2022/02/14 05:11:02;;;;;;;43.20;20.80;;;;;;;0.32;55.76;99057.34;219873;1285;140735;-59
2022/02/14 05:16:05;;;;;;;44.00;20.50;;;;;;;0.28;55.87;99055.86;220009;1285;139021;-60
2022/02/14 05:21:08;;;;;;;42.50;21.10;;;;;;;0.27;55.98;99060.93;219892;1286;139465;-59
2022/02/14 05:26:12;;;;;;;43.20;21.80;;;;;;;0.24;55.88;99062.05;219994;1285;139265;-60
2022/02/14 05:31:15;;;;;;;47.30;22.50;;;;;;;0.19;55.88;99060.92;219953;1285;140259;-57
2022/02/14 05:36:18;;;;;;;45.70;22.60;;;;;;;0.16;55.77;99062.55;219927;1285;139037;-58
2022/02/14 05:41:22;;;;;;;45.40;21.90;;;;;;;0.09;55.83;99069.14;219789;1285;140144;-58
2022/02/14 05:46:24;;;;;;;48.30;22.30;;;;;;;0.03;55.98;99074.50;220029;1285;139863;-55
2022/02/14 05:51:27;;;;;;;42.90;21.70;;;;;;;-0.02;56.12;99072.66;219951;1284;140276;-60
2022/02/14 05:56:31;;;;;;;42.90;21.80;;;;;;;-0.07;56.26;99072.92;220146;1284;140248;-60
2022/02/14 06:01:34;;;;;;;46.10;22.20;;;;;;;-0.06;56.38;99076.42;219903;1286;138650;-60
2022/02/14 06:06:41;;;;;;;43.70;20.80;;;;;;;-0.07;56.54;99080.96;219940;1286;139187;-61
2022/02/14 06:11:44;;;;;;;43.50;21.00;;;;;;;-0.08;56.56;99079.58;219937;1284;139763;-62
2022/02/14 06:16:48;;;;;;;45.50;22.40;;;;;;;-0.05;56.81;99077.43;219493;1286;139400;-61
2022/02/14 06:21:51;;;;;;;53.70;24.00;;;;;;;0.01;56.89;99075.23;219919;1285;139176;-64
2022/02/14 06:26:54;;;;;;;44.60;21.70;;;;;;;0.07;56.95;99074.41;219680;1285;139333;-64
2022/02/14 06:31:57;;;;;;;43.20;20.90;;;;;;;0.13;57.11;99072.38;219861;1285;139028;-61
2022/02/14 06:37:00;;;;;;;46.60;21.50;;;;;;;0.19;57.08;99067.90;219844;1285;139048;-62
2022/02/14 06:42:04;;;;;;;39.30;20.80;;;;;;;0.25;57.24;99061.34;219889;1284;139060;-58
2022/02/14 06:47:07;;;;;;;43.20;21.70;;;;;;;0.32;57.28;99065.02;219734;1285;140071;-59
2022/02/14 06:52:11;;;;;;;40.40;20.40;;;;;;;0.37;57.30;99058.30;219708;1284;139364;-60
2022/02/14 06:57:14;;;;;;;41.10;20.70;;;;;;;0.42;57.48;99058.89;219924;1285;138852;-57
2022/02/14 07:02:18;;;;;;;42.80;21.20;;;;;;;0.51;57.52;99061.14;219600;1286;139357;-61
2022/02/14 07:07:21;;;;;;;44.20;20.30;;;;;;;0.60;57.73;99062.34;219818;1284;139070;-63
2022/02/14 07:12:24;;;;;;;40.60;20.60;;;;;;;0.72;57.72;99062.60;219751;1285;139555;-61
2022/02/14 07:17:28;;;;;;;34.90;19.50;;;;;;;0.88;57.83;99059.80;219558;1285;139694;-64
2022/02/14 07:22:31;;;;;;;37.80;19.50;;;;;;;1.04;58.10;99058.58;219907;1285;139769;-64
2022/02/14 07:27:35;;;;;;;38.60;18.80;;;;;;;1.19;57.90;99055.08;220027;1284;139180;-62
2022/02/14 07:32:39;;;;;;;43.50;22.00;;;;;;;1.33;58.02;99050.20;219828;1285;138839;-65
2022/02/14 07:37:44;;;;;;;35.50;19.50;;;;;;;1.49;57.78;99045.09;219780;1285;140199;-63
2022/02/14 07:42:47;;;;;;;38.00;19.50;;;;;;;1.63;57.84;99042.98;219801;1285;140199;-64
2022/02/14 07:47:51;;;;;;;38.90;20.20;;;;;;;1.78;58.01;99039.25;219835;1285;139804;-61
2022/02/14 07:52:54;;;;;;;40.00;18.80;;;;;;;1.96;58.00;99039.46;219837;1285;139930;-59
2022/02/14 07:57:57;;;;;;;40.60;19.90;;;;;;;2.17;57.99;99039.61;220033;1285;138964;-61
2022/02/14 08:03:00;;;;;;;38.40;19.60;;;;;;;2.37;57.98;99038.33;219930;1285;139701;-62
2022/02/14 08:08:03;;;;;;;40.00;19.70;;;;;;;2.56;57.95;99032.19;219916;1285;139393;-65
2022/02/14 08:13:25;;;;;;;38.80;20.30;;;;;;;2.74;57.89;99031.25;219860;1285;139538;-67
2022/02/14 08:18:28;;;;;;;37.00;20.20;;;;;;;2.94;57.91;99032.58;219794;1285;139305;-62
2022/02/14 08:23:33;;;;;;;32.50;18.80;;;;;;;3.13;57.69;99027.41;219835;1285;138713;-64
2022/02/14 08:28:38;;;;;;;36.70;18.70;;;;;;;3.33;57.45;99026.26;219517;1286;139104;-62
2022/02/14 08:33:41;;;;;;;38.80;18.80;;;;;;;3.53;57.47;99026.63;219947;1285;139314;-60
2022/02/14 08:38:50;;;;;;;33.40;18.90;;;;;;;3.77;57.60;99019.84;219927;1285;139550;-64
2022/02/14 08:43:53;;;;;;;35.40;18.60;;;;;;;3.99;57.51;99018.53;219759;1284;141360;-64
2022/02/14 08:48:56;;;;;;;148.00;77.00;;;;;;;4.27;57.81;99009.29;219714;1285;139069;-64
2022/02/14 08:53:59;;;;;;;46.70;23.50;;;;;;;4.57;57.37;99001.84;219872;1285;141135;-60
2022/02/14 08:59:05;;;;;;;33.50;18.70;;;;;;;4.79;56.97;98997.63;219651;1284;139224;-58
2022/02/14 09:04:08;;;;;;;26.50;14.70;;;;;;;5.02;56.90;98986.67;220070;1285;139879;-61
2022/02/14 09:09:12;;;;;;;20.40;10.30;;;;;;;5.29;56.49;98990.18;219697;1285;139488;-61
2022/02/14 09:14:15;;;;;;;19.10;10.30;;;;;;;5.60;56.25;98981.83;219842;1284;139554;-62
2022/02/14 09:19:20;;;;;;;19.60;10.80;;;;;;;5.93;55.83;98974.44;219632;1284;139514;-63
2022/02/14 09:24:23;;;;;;;17.30;9.60;;;;;;;6.21;55.59;98971.98;219505;1285;138881;-60
2022/02/14 09:29:31;;;;;;;22.90;10.00;;;;;;;6.47;55.08;98972.86;219904;1285;139377;-61
2022/02/14 09:34:34;;;;;;;201.20;119.60;;;;;;;6.71;54.61;98965.38;219884;1285;139243;-63
2022/02/14 09:39:37;;;;;;;26.30;14.70;;;;;;;6.94;54.35;98960.06;220113;1284;139167;-62
2022/02/14 09:44:40;;;;;;;15.00;9.40;;;;;;;7.15;54.06;98958.15;219850;1283;139447;-63
2022/02/14 09:49:43;;;;;;;15.60;9.60;;;;;;;7.33;53.58;98956.05;219894;1285;138926;-62
2022/02/14 09:54:46;;;;;;;15.10;9.90;;;;;;;7.46;53.29;98953.40;219861;1285;138950;-64
2022/02/14 09:59:50;;;;;;;14.60;8.40;;;;;;;7.61;52.95;98945.96;219943;1285;140575;-65
2022/02/14 10:05:05;;;;;;;14.90;9.60;;;;;;;7.73;52.80;98943.23;219917;1285;139868;-64
2022/02/14 10:10:16;;;;;;;15.70;6.90;;;;;;;7.84;52.20;98940.90;219808;1285;140056;-63
2022/02/14 10:15:19;;;;;;;14.70;8.40;;;;;;;8.01;52.30;98943.17;219628;1285;138945;-63
2022/02/14 10:20:26;;;;;;;17.30;8.70;;;;;;;8.18;52.03;98946.11;219872;1285;139002;-62
2022/02/14 10:25:35;;;;;;;18.50;10.00;;;;;;;8.38;52.15;98942.94;219249;1285;138644;-64
2022/02/14 10:30:54;;;;;;;12.70;8.90;;;;;;;8.61;51.59;98930.76;219163;1285;138676;-60
2022/02/14 10:35:57;;;;;;;15.80;8.30;;;;;;;8.77;51.18;98916.59;219119;1285;139895;-60
2022/02/14 10:41:10;;;;;;;15.00;8.70;;;;;;;8.97;50.65;98915.44;219177;1284;138842;-59
2022/02/14 10:46:22;;;;;;;14.10;9.00;;;;;;;9.16;50.29;98906.73;219236;1285;139372;-58
2022/02/14 10:51:25;;;;;;;13.80;8.20;;;;;;;9.36;50.30;98906.10;219185;1284;138658;-57
2022/02/14 10:56:38;;;;;;;12.20;7.50;;;;;;;9.52;49.73;98895.40;219162;1286;139185;-57
2022/02/14 11:01:41;;;;;;;14.20;8.60;;;;;;;9.69;49.44;98886.20;219207;1286;138697;-58
2022/02/14 11:06:45;;;;;;;12.40;8.60;;;;;;;9.91;49.45;98884.13;218996;1284;138854;-59
2022/02/14 11:11:50;;;;;;;13.60;8.80;;;;;;;10.08;48.63;98878.31;219088;1286;139887;-58
2022/02/14 11:16:56;;;;;;;10.60;5.60;;;;;;;10.26;48.95;98874.36;219100;1286;139032;-55
2022/02/14 11:22:03;;;;;;;12.10;7.70;;;;;;;10.38;48.34;98871.09;219219;1284;139751;-56
2022/02/14 11:27:11;;;;;;;15.10;8.30;;;;;;;10.47;47.95;98871.13;219135;1286;140520;-58
2022/02/14 11:32:39;;;;;;;15.90;8.30;;;;;;;10.52;47.55;98869.54;219321;1285;139442;-58
2022/02/14 11:37:58;;;;;;;13.20;8.50;;;;;;;10.57;47.35;98863.71;219050;1286;139065;-59
2022/02/14 11:43:08;;;;;;;17.30;8.30;;;;;;;10.59;47.42;98859.65;219285;1285;139680;-57
2022/02/14 11:48:22;;;;;;;15.20;8.30;;;;;;;10.63;46.94;98858.64;219064;1285;139627;-58
2022/02/14 11:53:34;;;;;;;14.90;7.80;;;;;;;10.73;46.82;98858.73;219142;1286;139497;-56
2022/02/14 11:59:11;;;;;;;15.30;8.00;;;;;;;10.86;46.72;98852.02;219148;1286;139372;-57
2022/02/14 12:04:32;;;;;;;13.40;8.50;;;;;;;11.05;46.34;98849.55;219335;1285;139352;-59
2022/02/14 12:09:56;;;;;;;15.90;8.20;;;;;;;11.20;46.13;98839.50;218891;1286;139529;-58
2022/02/14 12:20:34;;;;;;;14.80;8.40;;;;;;;11.57;45.59;98821.09;219007;1286;139492;-58
2022/02/14 12:25:48;;;;;;;15.00;8.30;;;;;;;11.76;45.64;98811.77;219215;1285;138966;-59
2022/02/14 12:30:52;;;;;;;15.20;8.10;;;;;;;11.93;45.33;98807.73;219125;1285;140038;-59
2022/02/14 12:35:59;;;;;;;16.50;8.10;;;;;;;11.99;44.96;98799.88;219035;1286;139531;-58
2022/02/14 12:41:10;;;;;;;16.10;8.30;;;;;;;12.05;44.61;98796.02;219256;1285;152431;-60
2022/02/14 12:46:19;;;;;;;15.50;7.90;;;;;;;12.12;44.25;98792.55;219136;1286;139401;-59
2022/02/14 12:51:30;;;;;;;21.30;9.40;;;;;;;12.16;43.93;98787.64;219264;1286;139940;-60
2022/02/14 12:56:35;;;;;;;15.70;8.60;;;;;;;12.19;43.96;98776.54;219303;1284;141036;-59
2022/02/14 13:01:40;;;;;;;17.50;8.80;;;;;;;12.25;43.80;98776.61;219072;1286;140255;-58
2022/02/14 13:06:48;;;;;;;13.30;8.00;;;;;;;12.30;43.52;98772.02;219011;1286;139552;-58
2022/02/14 13:11:52;;;;;;;13.90;8.80;;;;;;;12.42;43.46;98768.11;219014;1286;139448;-59
2022/02/14 13:16:56;;;;;;;14.80;8.40;;;;;;;12.53;43.48;98760.00;219136;1286;139544;-60
2022/02/14 13:22:00;;;;;;;13.50;8.90;;;;;;;12.66;43.21;98755.14;219183;1286;139927;-58
2022/02/14 13:27:05;;;;;;;11.70;7.70;;;;;;;12.75;43.49;98743.89;219127;1285;139553;-59
2022/02/14 13:32:13;;;;;;;16.00;8.50;;;;;;;12.87;43.15;98743.39;219133;1286;139596;-59
2022/02/14 13:37:16;;;;;;;13.80;8.80;;;;;;;13.00;42.84;98735.76;219261;1286;140263;-59
2022/02/14 13:42:20;;;;;;;15.40;8.10;;;;;;;13.14;42.36;98735.02;219158;1286;138980;-56
2022/02/14 13:47:24;;;;;;;14.40;8.30;;;;;;;13.18;42.19;98732.48;219098;1286;139999;-57
2022/02/14 13:52:28;;;;;;;14.50;8.60;;;;;;;13.12;42.10;98730.55;219028;1286;139762;-59
2022/02/14 13:57:31;;;;;;;11.30;7.60;;;;;;;13.03;42.06;98719.37;219135;1285;140722;-56
2022/02/14 14:02:34;;;;;;;11.10;7.30;;;;;;;12.78;41.54;98714.14;219166;1285;139394;-55
2022/02/14 14:07:53;;;;;;;12.10;8.00;;;;;;;12.48;41.44;98705.34;219098;1285;140031;-57
2022/02/14 14:12:56;;;;;;;24.10;15.60;;;;;;;12.26;41.52;98705.79;219127;1285;139396;-56
2022/02/14 14:17:59;;;;;;;18.00;12.60;;;;;;;12.64;47.76;98698.98;219098;1286;139410;-58
2022/02/14 14:23:04;;;;;;;11.80;7.40;;;;;;;13.40;48.01;98696.70;219253;1284;139734;-58
2022/02/14 14:28:07;;;;;;;13.60;6.40;;;;;;;13.70;45.92;98692.52;219122;1286;139409;-58
2022/02/14 14:33:10;;;;;;;13.90;7.30;;;;;;;13.93;45.66;98690.00;219308;1286;138884;-58
2022/02/14 14:38:13;;;;;;;13.50;6.00;;;;;;;14.60;45.95;98680.31;219126;1286;139414;-59
2022/02/14 14:43:16;;;;;;;10.20;5.00;;;;;;;14.71;43.07;98682.98;219062;1286;139458;-58
2022/02/14 14:48:20;;;;;;;10.20;5.50;;;;;;;14.04;41.08;98678.13;219214;1285;139527;-58
2022/02/14 14:53:23;;;;;;;8.70;5.70;;;;;;;13.42;40.59;98672.11;219161;1286;139312;-58
2022/02/14 14:58:26;;;;;;;11.60;6.10;;;;;;;12.91;40.61;98669.16;219234;1286;139600;-57
2022/02/14 15:03:29;;;;;;;13.40;6.80;;;;;;;12.42;40.24;98670.96;219393;1285;140201;-56
2022/02/14 15:08:32;;;;;;;12.50;4.70;;;;;;;12.00;40.28;98670.15;219179;1285;139616;-58
2022/02/14 15:13:35;;;;;;;5.90;3.50;;;;;;;11.65;39.86;98672.37;219017;1286;139078;-57
2022/02/14 15:18:38;;;;;;;6.30;3.20;;;;;;;11.35;39.45;98678.77;219006;1286;138955;-55
2022/02/14 15:23:42;;;;;;;10.70;2.80;;;;;;;11.11;39.61;98683.84;219152;1286;139444;-56
2022/02/14 15:28:47;;;;;;;;;;;;;;;10.83;39.24;98683.09;219356;1285;139747;-56
2022/02/14 15:33:50;;;;;;;12.70;3.60;;;;;;;10.59;39.23;98689.68;219280;1286;127300;-57
2022/02/14 15:38:54;;;;;;;6.60;3.30;;;;;;;10.41;39.42;98685.08;219102;1286;142370;-57
2022/02/14 15:43:57;;;;;;;9.70;2.90;;;;;;;10.21;39.46;98683.52;218872;1286;139145;-56
2022/02/14 15:49:01;;;;;;;6.80;3.10;;;;;;;10.06;39.68;98679.21;219171;1286;138952;-58
2022/02/14 15:54:04;;;;;;;9.30;3.50;;;;;;;9.91;39.76;98679.45;218996;1286;139450;-57
2022/02/14 15:59:09;;;;;;;8.20;3.90;;;;;;;9.80;39.89;98677.53;219258;1286;138702;-57
2022/02/14 16:04:12;;;;;;;9.30;4.00;;;;;;;9.70;39.68;98681.33;219305;1286;139611;-57
2022/02/14 16:09:16;;;;;;;10.80;3.90;;;;;;;9.61;39.94;98687.30;219201;1286;139317;-59
2022/02/14 16:14:20;;;;;;;11.50;3.50;;;;;;;9.48;39.90;98689.31;218827;1287;139640;-60
2022/02/14 16:19:23;;;;;;;10.50;3.30;;;;;;;9.41;39.99;98685.67;219073;1286;139135;-60
2022/02/14 16:24:27;;;;;;;8.10;3.80;;;;;;;9.36;40.00;98682.27;219177;1286;138750;-59
2022/02/14 16:29:30;;;;;;;6.10;3.70;;;;;;;9.32;40.09;98688.75;219533;1285;139370;-60
2022/02/14 16:34:34;;;;;;;11.70;4.40;;;;;;;9.29;40.00;98690.02;219994;1285;139603;-57
2022/02/14 16:39:37;;;;;;;9.60;3.90;;;;;;;9.20;40.00;98685.94;219772;1285;139099;-60
2022/02/14 16:44:40;;;;;;;11.90;4.30;;;;;;;9.15;40.13;98688.52;219571;1285;285022;-60
2022/02/14 16:49:51;;;;;;;13.80;4.60;;;;;;;9.13;40.23;98686.94;219708;1285;139956;-60
2022/02/14 16:54:58;;;;;;;8.10;4.60;;;;;;;9.12;40.31;98687.70;219814;1284;139127;-59
2022/02/14 17:00:04;;;;;;;12.90;4.30;;;;;;;9.13;40.35;98684.77;219916;1284;139180;-60
2022/02/14 17:05:08;;;;;;;13.70;5.00;;;;;;;9.12;40.43;98682.05;219915;1284;139244;-60
2022/02/14 17:10:11;;;;;;;14.90;4.70;;;;;;;9.06;40.47;98682.05;220098;1284;138540;-60
2022/02/14 17:15:15;;;;;;;17.00;5.40;;;;;;;9.03;40.74;98682.79;219799;1286;139811;-61
2022/02/14 17:20:19;;;;;;;19.80;6.80;;;;;;;9.00;40.69;98686.10;219702;1284;141212;-60
2022/02/14 17:25:22;;;;;;;15.40;7.10;;;;;;;8.90;40.53;98682.14;219768;1286;139278;-60
2022/02/14 17:30:27;;;;;;;14.10;6.60;;;;;;;8.86;40.73;98682.38;219841;1285;139856;-61
2022/02/14 17:35:30;;;;;;;19.80;5.40;;;;;;;8.82;40.59;98686.67;219782;1287;140163;-59
2022/02/14 17:40:33;;;;;;;19.30;6.70;;;;;;;8.74;40.68;98688.95;219904;1285;138247;-58
2022/02/14 17:45:36;;;;;;;16.40;6.00;;;;;;;8.66;40.76;98686.72;219682;1286;139914;-61
2022/02/14 17:50:39;;;;;;;18.10;6.30;;;;;;;8.64;40.96;98683.50;219683;1284;138684;-59
2022/02/14 17:55:42;;;;;;;40.30;23.10;;;;;;;8.68;41.00;98689.48;219495;1286;138864;-62
2022/02/14 18:00:45;;;;;;;28.50;14.50;;;;;;;8.82;41.92;98687.73;219818;1285;139573;-58
2022/02/14 18:05:50;;;;;;;18.70;7.80;;;;;;;9.00;41.64;98683.81;219784;1286;139272;-62
2022/02/14 18:10:53;;;;;;;22.40;11.70;;;;;;;8.92;41.34;98677.20;219487;1286;139129;-61
2022/02/14 18:15:56;;;;;;;26.80;8.80;;;;;;;8.81;41.33;98672.42;219875;1286;139888;-62
2022/02/14 18:20:59;;;;;;;28.00;9.80;;;;;;;8.58;41.33;98674.48;219519;1286;139409;-59
2022/02/14 18:26:03;;;;;;;26.50;8.30;;;;;;;8.31;41.58;98680.34;219781;1285;140017;-60
2022/02/14 18:31:06;;;;;;;26.10;9.90;;;;;;;8.05;41.76;98682.70;219615;1286;139531;-62
2022/02/14 18:36:09;;;;;;;32.50;15.60;;;;;;;7.85;42.02;98681.23;219632;1286;138991;-61
2022/02/14 18:41:13;;;;;;;37.70;18.20;;;;;;;7.71;42.27;98682.33;219558;1286;140768;-60
2022/02/14 18:46:22;;;;;;;38.60;20.60;;;;;;;7.60;42.54;98687.72;219449;1286;139595;-61
2022/02/14 18:51:25;;;;;;;39.90;20.10;;;;;;;7.50;42.66;98689.17;219773;1286;138718;-63
2022/02/14 18:56:28;;;;;;;46.40;21.30;;;;;;;7.37;42.92;98690.39;219736;1286;139407;-62
2022/02/14 19:01:31;;;;;;;37.20;21.20;;;;;;;7.22;43.33;98693.49;219795;1286;139858;-61
2022/02/14 19:06:55;;;;;;;43.00;22.20;;;;;;;7.14;43.75;98691.11;219792;1284;139076;-60
2022/02/14 19:11:58;;;;;;;319.70;230.90;;;;;;;7.18;44.11;98693.02;219786;1285;139817;-62
2022/02/14 19:17:17;;;;;;;52.20;28.10;;;;;;;7.35;44.58;98695.78;219770;1284;139667;-62
2022/02/14 19:22:21;;;;;;;44.30;24.10;;;;;;;7.39;44.31;98693.30;219689;1286;139746;-63
2022/02/14 19:27:24;;;;;;;76.90;41.60;;;;;;;7.31;44.33;98698.84;219675;1286;139660;-62
2022/02/14 19:32:27;;;;;;;47.00;23.10;;;;;;;7.23;44.62;98704.92;219794;1285;139270;-59
2022/02/14 19:37:30;;;;;;;48.70;24.00;;;;;;;7.11;44.50;98709.47;219284;1286;139529;-59
2022/02/14 19:42:33;;;;;;;54.90;25.80;;;;;;;6.93;44.54;98707.95;219281;1286;141810;-57
2022/02/14 19:47:36;;;;;;;51.90;24.60;;;;;;;6.71;44.73;98710.87;219111;1284;139737;-62
2022/02/14 19:52:39;;;;;;;55.50;25.20;;;;;;;6.51;44.81;98710.08;219376;1286;138837;-61
2022/02/14 19:57:45;;;;;;;50.70;24.50;;;;;;;6.35;45.19;98711.98;219271;1286;139464;-58
2022/02/14 20:02:48;;;;;;;56.80;24.80;;;;;;;6.15;45.24;98705.59;218884;1287;140258;-61
2022/02/14 20:07:52;;;;;;;52.00;24.40;;;;;;;5.97;45.58;98701.48;219145;1286;139134;-60
2022/02/14 20:12:55;;;;;;;44.90;23.90;;;;;;;5.82;46.13;98706.10;219217;1286;209730;-62
2022/02/14 20:17:58;;;;;;;50.30;25.10;;;;;;;5.67;46.35;98715.77;218876;1286;141313;-59
2022/02/14 20:23:01;;;;;;;51.00;25.10;;;;;;;5.53;46.60;98712.56;219242;1286;142522;-60
2022/02/14 20:28:05;;;;;;;65.50;28.40;;;;;;;5.40;47.29;98716.83;219355;1283;139924;-60
2022/02/14 20:33:08;;;;;;;58.20;27.80;;;;;;;5.31;47.26;98717.48;218978;1286;139911;-59
2022/02/14 20:38:11;;;;;;;58.80;28.10;;;;;;;5.19;47.54;98717.45;218962;1287;139810;-59
2022/02/14 20:43:17;;;;;;;59.40;28.20;;;;;;;5.09;47.84;98714.60;219383;1283;140172;-61
2022/02/14 20:48:20;;;;;;;61.40;27.90;;;;;;;4.96;48.09;98716.42;219630;1286;138955;-61
2022/02/14 20:53:24;;;;;;;56.70;26.90;;;;;;;4.81;48.41;98715.65;219592;1285;138425;-59
2022/02/14 20:58:28;;;;;;;58.60;28.90;;;;;;;4.72;48.72;98717.29;219784;1284;138577;-60
2022/02/14 21:03:31;;;;;;;66.10;30.00;;;;;;;4.64;48.77;98715.33;220105;1271;138637;-60
2022/02/14 21:08:35;;;;;;;60.30;31.70;;;;;;;4.55;48.99;98716.27;219454;1285;139075;-59
2022/02/14 21:13:38;;;;;;;67.60;29.70;;;;;;;4.48;49.17;98714.42;219748;1286;139224;-57
2022/02/14 21:18:41;;;;;;;68.90;31.50;;;;;;;4.44;49.54;98711.27;219382;1285;138749;-57
2022/02/14 21:23:46;;;;;;;256.40;132.90;;;;;;;4.41;49.78;98708.39;219992;1284;139786;-59
2022/02/14 21:28:50;;;;;;;80.10;38.30;;;;;;;4.42;49.88;98712.25;219854;1284;162590;-58
2022/02/14 21:33:53;;;;;;;67.30;31.70;;;;;;;4.44;50.51;98713.73;219875;1285;139246;-59
2022/02/14 21:38:56;;;;;;;64.50;30.80;;;;;;;4.36;50.15;98705.30;219597;1284;139071;-59
2022/02/14 21:44:01;;;;;;;68.30;32.70;;;;;;;4.25;50.33;98706.11;219690;1285;139197;-61
2022/02/14 21:49:08;;;;;;;70.90;32.60;;;;;;;4.15;50.38;98708.61;219707;1283;140190;-59
2022/02/14 21:54:12;;;;;;;82.20;34.00;;;;;;;4.04;50.61;98700.49;220160;1283;139345;-57
2022/02/14 21:59:15;;;;;;;73.00;32.80;;;;;;;3.93;50.89;98693.39;219800;1284;139176;-58
2022/02/14 22:04:18;;;;;;;69.80;32.50;;;;;;;3.83;51.23;98693.61;219923;1285;140176;-55
2022/02/14 22:09:21;;;;;;;74.00;33.10;;;;;;;3.78;51.39;98697.13;219936;1284;139045;-60
2022/02/14 22:14:24;;;;;;;63.70;31.50;;;;;;;3.75;51.51;98688.66;219762;1285;139231;-59
2022/02/14 22:19:27;;;;;;;77.30;33.30;;;;;;;3.66;51.70;98681.84;219752;1284;139228;-58
2022/02/14 22:24:30;;;;;;;69.40;35.30;;;;;;;3.58;51.85;98676.71;219728;1285;139780;-58
2022/02/14 22:29:33;;;;;;;71.10;35.40;;;;;;;3.53;51.99;98682.16;219662;1286;139151;-59
2022/02/14 22:34:37;;;;;;;65.80;34.30;;;;;;;3.50;52.21;98682.83;219779;1284;139302;-59
2022/02/14 22:39:40;;;;;;;71.20;35.20;;;;;;;3.44;52.48;98683.91;219745;1284;139259;-57
2022/02/14 22:44:43;;;;;;;74.40;35.50;;;;;;;3.40;52.64;98677.79;219375;1285;138926;-58
2022/02/14 22:49:47;;;;;;;68.40;35.50;;;;;;;3.34;52.79;98678.20;219669;1286;138497;-56
2022/02/14 22:54:51;;;;;;;70.40;36.20;;;;;;;3.29;52.86;98679.42;219521;1285;140993;-58
2022/02/14 23:00:32;;;;;;;74.10;36.20;;;;;;;3.23;53.01;98680.55;219550;1285;138962;-58
2022/02/14 23:05:36;;;;;;;71.00;33.70;;;;;;;3.18;53.28;98672.46;219821;1284;138866;-58
2022/02/14 23:16:05;;;;;;;61.10;32.70;;;;;;;3.20;53.54;98661.91;219537;1284;139068;-58
2022/02/14 23:21:08;;;;;;;68.60;34.30;;;;;;;3.22;53.55;98656.02;219314;1285;138645;-58